Time;durP1;ratioP1;P1;durP2;ratioP2;P2;SDS_P1;SDS_P2;PMS_P1;PMS_P2;Temp;Humidity;BMP_temperature;BMP_pressure;BME280_temperature;BME280_humidity;BME280_pressure;Samples;Min_cycle;Max_cycle;Signal;HPM_P1;HPM_P2
2023/03/05 00:00:09;;;;;;;6.75;1.48;;;4.30;99.90;;;;;;5012518;28;20038;-85
2023/03/05 00:02:35;;;;;;;5.55;1.23;;;4.20;99.90;;;;;;4996708;28;20045;-85
2023/03/05 00:05:01;;;;;;;7.25;1.83;;;4.20;99.90;;;;;;4999224;28;20847;-86
2023/03/05 00:07:26;;;;;;;5.07;1.42;;;4.20;99.90;;;;;;4993481;28;20049;-85
2023/03/05 00:09:52;;;;;;;4.28;0.98;;;4.20;99.90;;;;;;4991547;28;20036;-85
2023/03/05 00:12:18;;;;;;;5.03;1.00;;;4.20;99.90;;;;;;4995060;28;20095;-85
2023/03/05 00:14:43;;;;;;;5.07;1.25;;;4.20;99.90;;;;;;5004558;28;20053;-86
2023/03/05 00:17:09;;;;;;;4.68;1.45;;;4.10;99.90;;;;;;4993792;28;20054;-85
2023/03/05 00:19:35;;;;;;;6.25;1.05;;;4.10;99.90;;;;;;5008453;28;20038;-86
2023/03/05 00:22:00;;;;;;;7.28;1.00;;;4.10;99.90;;;;;;5008219;28;20046;-85
2023/03/05 00:24:26;;;;;;;3.47;0.93;;;4.10;99.90;;;;;;5010314;28;20045;-86
2023/03/05 00:26:52;;;;;;;5.47;1.17;;;4.10;99.90;;;;;;4995811;28;20041;-86
2023/03/05 00:29:20;;;;;;;8.32;1.45;;;4.10;99.90;;;;;;5011622;28;20500;-86
2023/03/05 00:31:47;;;;;;;4.95;1.00;;;4.60;99.90;;;;;;5011569;28;20054;-85
2023/03/05 00:34:15;;;;;;;3.42;0.90;;;4.10;99.90;;;;;;4997250;28;20042;-86
2023/03/05 00:36:53;;;;;;;5.22;0.80;;;4.10;99.90;;;;;;4992095;28;20042;-86
2023/03/05 00:39:19;;;;;;;5.70;0.88;;;4.10;99.90;;;;;;4991095;28;20087;-86
2023/03/05 00:41:46;;;;;;;4.70;0.90;;;4.10;99.90;;;;;;4990603;28;20053;-85
2023/03/05 00:44:11;;;;;;;4.38;1.00;;;4.00;99.90;;;;;;4992290;28;20134;-86
2023/03/05 00:46:37;;;;;;;3.90;0.82;;;4.00;99.90;;;;;;4991926;28;20535;-86
2023/03/05 00:49:03;;;;;;;2.88;0.90;;;4.00;99.90;;;;;;4992208;28;20034;-86
2023/03/05 00:51:29;;;;;;;4.00;0.70;;;4.00;99.90;;;;;;5009636;28;20109;-86
2023/03/05 00:53:54;;;;;;;6.30;1.40;;;4.00;99.90;;;;;;4973850;28;20042;-85
2023/03/05 00:56:21;;;;;;;5.82;1.02;;;4.30;99.90;;;;;;5004134;28;20042;-86
2023/03/05 00:58:46;;;;;;;6.63;0.90;;;4.00;99.90;;;;;;4991193;28;20054;-86
2023/03/05 01:01:13;;;;;;;4.57;1.00;;;4.00;99.90;;;;;;5011341;28;20040;-86
2023/03/05 01:03:39;;;;;;;4.07;0.90;;;4.00;99.90;;;;;;5010946;28;20165;-86
2023/03/05 01:06:07;;;;;;;6.35;1.02;;;4.00;99.90;;;;;;4992895;28;20124;-86
2023/03/05 01:08:33;;;;;;;3.72;0.73;;;4.00;99.90;;;;;;4991833;28;20038;-84
2023/03/05 01:10:59;;;;;;;6.20;1.00;;;4.00;99.90;;;;;;4985055;28;20057;-85
2023/03/05 01:13:25;;;;;;;4.25;0.90;;;4.00;99.90;;;;;;5006344;28;20045;-86
2023/03/05 01:15:51;;;;;;;3.88;0.85;;;4.00;99.90;;;;;;5010327;28;20045;-86
2023/03/05 01:18:18;;;;;;;5.07;0.75;;;4.00;99.90;;;;;;5008607;28;20045;-86
2023/03/05 01:20:44;;;;;;;3.38;0.70;;;4.00;99.90;;;;;;4989959;28;20057;-86
2023/03/05 01:23:10;;;;;;;5.95;1.17;;;3.90;99.90;;;;;;5003198;28;20362;-86
2023/03/05 01:25:35;;;;;;;2.55;0.75;;;3.90;99.90;;;;;;5006677;28;20465;-86
2023/03/05 01:28:01;;;;;;;3.58;0.75;;;3.90;99.90;;;;;;5006578;28;20407;-86
2023/03/05 01:30:27;;;;;;;6.18;0.85;;;3.90;99.90;;;;;;5010838;28;20057;-86
2023/03/05 01:32:54;;;;;;;5.60;0.82;;;3.90;99.90;;;;;;5008208;28;20042;-86
2023/03/05 01:35:23;;;;;;;5.22;0.73;;;3.90;99.90;;;;;;5008139;28;20141;-86
2023/03/05 01:37:49;;;;;;;6.18;1.05;;;3.90;99.90;;;;;;4991782;28;20066;-86
2023/03/05 01:40:19;;;;;;;8.77;0.98;;;3.90;99.90;;;;;;4993001;28;20076;-86
2023/03/05 01:42:46;;;;;;;5.57;0.80;;;4.90;99.90;;;;;;5004823;28;20168;-86
2023/03/05 01:45:15;;;;;;;4.85;0.73;;;4.00;99.90;;;;;;4990992;28;20053;-86
2023/03/05 01:47:41;;;;;;;2.20;0.65;;;3.90;99.90;;;;;;5002866;28;20053;-86
2023/03/05 01:50:10;;;;;;;2.70;0.60;;;3.90;99.90;;;;;;5001050;28;20119;-86
2023/03/05 01:52:39;;;;;;;4.22;1.00;;;3.90;99.90;;;;;;5006292;28;20045;-86
2023/03/05 01:55:10;;;;;;;7.05;0.88;;;3.90;99.90;;;;;;4987560;28;20038;-86
2023/03/05 01:57:46;;;;;;;3.72;0.63;;;3.90;99.90;;;;;;5004011;28;20400;-86
2023/03/05 02:00:17;;;;;;;6.82;1.45;;;3.80;99.90;;;;;;5006856;28;20034;-86
2023/03/05 02:02:45;;;;;;;4.85;0.88;;;3.80;99.90;;;;;;4990808;28;20093;-86
2023/03/05 02:05:29;;;;;;;5.22;0.88;;;3.70;99.90;;;;;;5007086;28;20045;-86
2023/03/05 02:07:56;;;;;;;5.85;1.17;;;3.70;99.90;;;;;;5005947;28;20125;-86
2023/03/05 02:10:26;;;;;;;3.92;0.70;;;3.70;99.90;;;;;;4991219;28;20041;-86
2023/03/05 02:12:55;;;;;;;4.55;0.88;;;3.70;99.90;;;;;;4987109;28;20145;-86
2023/03/05 02:15:21;;;;;;;9.00;1.20;;;3.70;99.90;;;;;;4989074;28;20132;-85
2023/03/05 02:17:47;;;;;;;7.43;0.82;;;3.70;99.90;;;;;;5009313;28;20125;-86
2023/03/05 02:20:16;;;;;;;3.63;0.88;;;3.70;99.90;;;;;;5007225;28;20046;-86
2023/03/05 02:22:42;;;;;;;5.75;0.85;;;3.60;99.90;;;;;;4991181;28;20046;-85
2023/03/05 02:25:23;;;;;;;6.88;0.80;;;3.60;99.90;;;;;;4977877;28;20721;-86
2023/03/05 02:28:00;;;;;;;5.93;1.10;;;3.60;99.90;;;;;;5002831;28;20045;-86
2023/03/05 02:30:26;;;;;;;3.95;0.68;;;3.60;99.90;;;;;;4979355;28;20034;-86
2023/03/05 02:32:52;;;;;;;4.60;0.98;;;3.50;99.90;;;;;;4988586;28;20038;-86
2023/03/05 02:35:18;;;;;;;7.00;0.90;;;3.50;99.90;;;;;;4976988;28;20117;-86
2023/03/05 02:37:44;;;;;;;6.07;0.98;;;3.50;99.90;;;;;;4982491;28;20121;-85
2023/03/05 02:40:11;;;;;;;8.65;1.00;;;3.50;99.90;;;;;;5009469;28;20060;-86
2023/03/05 02:42:37;;;;;;;2.22;0.70;;;3.50;99.90;;;;;;4989983;28;20050;-86
2023/03/05 02:45:03;;;;;;;4.78;1.00;;;3.50;99.90;;;;;;4998469;28;20050;-85
2023/03/05 02:47:29;;;;;;;4.55;1.10;;;3.50;99.90;;;;;;4989811;28;20065;-86
2023/03/05 02:49:55;;;;;;;7.25;1.00;;;3.50;99.90;;;;;;5003293;28;20046;-86
2023/03/05 02:52:24;;;;;;;4.47;1.05;;;3.50;99.90;;;;;;4988795;28;20043;-85
2023/03/05 02:54:51;;;;;;;7.85;1.40;;;3.50;99.90;;;;;;5003618;28;20045;-86
2023/03/05 02:57:18;;;;;;;5.13;1.38;;;3.40;99.90;;;;;;4979220;28;20088;-86
2023/03/05 02:59:45;;;;;;;8.90;1.20;;;3.50;99.90;;;;;;4974216;28;20046;-86
2023/03/05 03:02:10;;;;;;;3.28;0.82;;;3.50;99.90;;;;;;4983679;28;20042;-86
2023/03/05 03:04:36;;;;;;;6.55;0.98;;;3.50;99.90;;;;;;5009000;28;20037;-86
2023/03/05 03:07:02;;;;;;;7.85;0.98;;;3.50;99.90;;;;;;5008955;28;20041;-86
2023/03/05 03:09:28;;;;;;;5.63;0.95;;;3.50;99.90;;;;;;5002679;28;20501;-86
2023/03/05 03:11:53;;;;;;;4.80;1.10;;;3.50;99.90;;;;;;5007163;28;20033;-86
2023/03/05 03:14:19;;;;;;;6.82;0.98;;;3.40;99.90;;;;;;5008810;28;20042;-86
2023/03/05 03:16:46;;;;;;;3.67;0.80;;;3.40;99.90;;;;;;5007087;28;20038;-86
2023/03/05 03:19:12;;;;;;;3.53;0.73;;;3.40;99.90;;;;;;4991933;28;20037;-86
2023/03/05 03:21:37;;;;;;;5.20;1.00;;;3.40;99.90;;;;;;4987558;28;20041;-86
2023/03/05 03:24:03;;;;;;;6.30;1.02;;;3.50;99.90;;;;;;4984000;28;20048;-86
2023/03/05 03:26:30;;;;;;;3.15;0.60;;;3.50;99.90;;;;;;4991365;28;20507;-86
2023/03/05 03:28:56;;;;;;;8.05;1.05;;;3.40;99.90;;;;;;4988127;28;20445;-86
2023/03/05 03:31:22;;;;;;;3.70;0.68;;;3.50;99.90;;;;;;4978486;28;20133;-86
2023/03/05 03:33:48;;;;;;;3.72;0.77;;;3.40;99.90;;;;;;5006463;28;20113;-86
2023/03/05 03:36:14;;;;;;;5.20;1.30;;;3.40;99.90;;;;;;4981945;28;20034;-87
2023/03/05 03:38:40;;;;;;;4.38;0.85;;;3.50;99.90;;;;;;4984385;28;20370;-86
2023/03/05 03:41:07;;;;;;;4.90;0.88;;;3.50;99.90;;;;;;5011628;28;20092;-87
2023/03/05 03:43:33;;;;;;;3.80;1.02;;;3.40;99.90;;;;;;5010093;28;20041;-86
2023/03/05 03:45:59;;;;;;;10.50;1.48;;;3.40;99.90;;;;;;4990926;28;20455;-86
2023/03/05 03:48:25;;;;;;;9.05;1.10;;;3.40;99.90;;;;;;4997863;28;20038;-86
2023/03/05 03:50:50;;;;;;;4.80;0.80;;;3.40;99.90;;;;;;4983329;28;20104;-86
2023/03/05 03:53:16;;;;;;;4.63;0.75;;;3.40;99.90;;;;;;5007175;28;20034;-86
2023/03/05 03:55:42;;;;;;;5.20;1.10;;;3.30;99.90;;;;;;4992184;28;20054;-85
2023/03/05 03:58:09;;;;;;;5.88;1.10;;;3.30;99.90;;;;;;5012131;28;20124;-86
2023/03/05 04:00:34;;;;;;;3.47;0.80;;;3.30;99.90;;;;;;4990273;28;20538;-86
2023/03/05 04:03:00;;;;;;;4.85;1.00;;;3.30;99.90;;;;;;4979801;28;20034;-86
2023/03/05 04:05:26;;;;;;;6.63;1.15;;;3.30;99.90;;;;;;5011994;28;20092;-86
2023/03/05 04:07:51;;;;;;;7.05;1.08;;;3.20;99.90;;;;;;4998386;28;20416;-86
2023/03/05 04:10:17;;;;;;;4.50;0.63;;;3.20;99.90;;;;;;4975473;28;20712;-86
2023/03/05 04:12:44;;;;;;;4.80;0.80;;;3.30;99.90;;;;;;5012011;28;20753;-86
2023/03/05 04:15:11;;;;;;;3.50;0.85;;;3.30;99.90;;;;;;4993798;28;20045;-86
2023/03/05 04:17:36;;;;;;;5.25;0.80;;;3.30;99.90;;;;;;5013487;28;20563;-86
2023/03/05 04:20:04;;;;;;;3.38;0.90;;;3.30;99.90;;;;;;5013966;28;20041;-86
2023/03/05 04:22:30;;;;;;;6.65;1.00;;;3.30;99.90;;;;;;4988832;28;20412;-87
2023/03/05 04:24:55;;;;;;;7.75;0.98;;;3.30;99.90;;;;;;4992682;28;20042;-87
2023/03/05 04:27:21;;;;;;;3.53;0.88;;;3.40;99.90;;;;;;5011465;28;20080;-87
2023/03/05 04:29:47;;;;;;;4.55;0.85;;;3.30;99.90;;;;;;4993713;28;20065;-87
2023/03/05 04:32:12;;;;;;;3.13;0.90;;;3.30;99.90;;;;;;4986207;28;20501;-87
2023/03/05 04:34:38;;;;;;;3.20;0.80;;;3.30;99.90;;;;;;4987430;28;20053;-87
2023/03/05 04:37:04;;;;;;;6.20;1.15;;;3.30;99.90;;;;;;4995604;28;20038;-86
2023/03/05 04:39:30;;;;;;;6.85;1.00;;;3.30;99.90;;;;;;5009144;28;20037;-87
2023/03/05 04:41:56;;;;;;;2.85;0.77;;;3.20;99.90;;;;;;4992519;28;20215;-86
2023/03/05 04:44:22;;;;;;;7.32;1.20;;;3.20;99.90;;;;;;4992318;28;20524;-86
2023/03/05 04:46:48;;;;;;;3.70;0.88;;;3.20;99.90;;;;;;5006632;28;20050;-87
2023/03/05 04:49:14;;;;;;;4.15;0.80;;;3.20;99.90;;;;;;5003613;28;20072;-86
2023/03/05 04:51:40;;;;;;;4.80;0.90;;;3.10;99.90;;;;;;5002263;28;20155;-87
2023/03/05 04:54:06;;;;;;;7.20;0.90;;;3.20;99.90;;;;;;4991997;28;20045;-86
2023/03/05 04:56:32;;;;;;;9.57;1.20;;;3.20;99.90;;;;;;4990230;28;20076;-87
2023/03/05 04:58:58;;;;;;;2.50;0.77;;;3.20;99.90;;;;;;4990588;28;20049;-87
2023/03/05 05:01:24;;;;;;;4.43;0.98;;;3.20;99.90;;;;;;5003712;28;20109;-86
2023/03/05 05:03:50;;;;;;;4.25;0.70;;;3.10;99.90;;;;;;5006288;28;20446;-87
2023/03/05 05:06:16;;;;;;;6.55;0.98;;;3.20;99.90;;;;;;5001002;28;20055;-86
2023/03/05 05:08:42;;;;;;;4.22;0.98;;;3.20;99.90;;;;;;5006974;28;20054;-86
2023/03/05 05:11:11;;;;;;;5.22;0.90;;;3.10;99.90;;;;;;4991835;28;20065;-86
2023/03/05 05:13:39;;;;;;;3.92;1.08;;;3.10;99.90;;;;;;5003789;28;20115;-86
2023/03/05 05:16:06;;;;;;;3.63;0.95;;;3.10;99.90;;;;;;5002937;28;20128;-86
2023/03/05 05:18:32;;;;;;;5.22;1.00;;;3.30;99.90;;;;;;5002320;28;20172;-87
2023/03/05 05:20:58;;;;;;;4.93;1.20;;;3.10;99.90;;;;;;5002716;28;20188;-86
2023/03/05 05:23:23;;;;;;;5.97;0.80;;;3.10;99.90;;;;;;4998716;28;20049;-86
2023/03/05 05:26:00;;;;;;;4.05;0.90;;;3.10;99.90;;;;;;4993699;28;20038;-87
2023/03/05 05:28:26;;;;;;;5.07;0.80;;;3.10;99.90;;;;;;4976296;28;20034;-86
2023/03/05 05:30:53;;;;;;;4.03;0.82;;;3.10;99.90;;;;;;5003965;28;20042;-86
2023/03/05 05:33:20;;;;;;;4.50;1.55;;;3.10;99.90;;;;;;5000771;28;20042;-86
2023/03/05 05:35:46;;;;;;;4.38;0.80;;;3.10;99.90;;;;;;5002905;28;20092;-87
2023/03/05 05:38:11;;;;;;;2.95;0.63;;;3.00;99.90;;;;;;4989982;28;20508;-87
2023/03/05 05:40:37;;;;;;;4.55;0.63;;;3.20;99.90;;;;;;5009437;28;20095;-86
2023/03/05 05:43:03;;;;;;;3.47;0.50;;;3.20;99.90;;;;;;4973233;28;20062;-87
2023/03/05 05:45:29;;;;;;;6.13;0.77;;;3.20;99.90;;;;;;5007750;28;20192;-87
2023/03/05 05:47:55;;;;;;;6.22;0.63;;;3.10;99.90;;;;;;5006349;28;20079;-87
2023/03/05 05:50:21;;;;;;;3.58;0.50;;;3.20;99.90;;;;;;5003575;28;20444;-87
2023/03/05 05:52:46;;;;;;;6.80;0.73;;;3.20;99.90;;;;;;4984918;28;20069;-87
2023/03/05 05:55:12;;;;;;;2.63;0.55;;;3.10;99.90;;;;;;4984977;28;20599;-87
2023/03/05 05:57:38;;;;;;;2.60;0.43;;;3.20;99.90;;;;;;5007020;28;20034;-87
2023/03/05 06:00:07;;;;;;;2.95;0.50;;;3.20;99.90;;;;;;4992338;28;20521;-86
2023/03/05 06:02:33;;;;;;;3.58;0.30;;;3.10;99.90;;;;;;5003972;28;20031;-87
2023/03/05 06:05:02;;;;;;;5.10;0.40;;;3.40;99.90;;;;;;5005774;28;20030;-86
2023/03/05 06:07:28;;;;;;;6.07;0.60;;;3.10;99.90;;;;;;4987404;28;20042;-86
2023/03/05 06:09:56;;;;;;;5.20;0.40;;;3.10;99.90;;;;;;5008166;28;20038;-85
2023/03/05 06:12:22;;;;;;;4.05;0.57;;;3.00;99.90;;;;;;5002979;28;20046;-85
2023/03/05 06:14:48;;;;;;;4.05;0.60;;;3.00;99.90;;;;;;4998627;28;20397;-86
2023/03/05 06:17:14;;;;;;;2.17;0.40;;;2.90;99.90;;;;;;5007001;28;20034;-86
2023/03/05 06:19:39;;;;;;;3.05;1.38;;;3.00;99.90;;;;;;5007677;28;20042;-86
2023/03/05 06:22:05;;;;;;;1.55;0.50;;;2.90;99.90;;;;;;4997893;28;20050;-86
2023/03/05 06:24:33;;;;;;;2.03;0.40;;;2.90;99.90;;;;;;5003105;28;20513;-86
2023/03/05 06:26:59;;;;;;;3.15;0.40;;;2.90;99.90;;;;;;5004990;28;20499;-86
2023/03/05 06:29:34;;;;;;;3.35;0.43;;;2.90;99.90;;;;;;4978978;28;20050;-85
2023/03/05 06:31:59;;;;;;;1.60;0.40;;;2.90;99.90;;;;;;4986017;28;20038;-86
2023/03/05 06:34:25;;;;;;;3.28;0.40;;;2.80;99.90;;;;;;4996942;28;20049;-85
2023/03/05 06:36:51;;;;;;;5.35;0.50;;;3.30;99.90;;;;;;4980012;28;20071;-86
2023/03/05 06:39:17;;;;;;;2.65;0.40;;;2.80;99.90;;;;;;4984813;28;20054;-86
2023/03/05 06:41:43;;;;;;;4.32;0.60;;;4.20;99.90;;;;;;4979792;28;20065;-85
2023/03/05 06:44:09;;;;;;;4.47;0.93;;;2.80;99.90;;;;;;4975403;28;20129;-86
2023/03/05 06:46:38;;;;;;;4.53;0.50;;;2.80;99.90;;;;;;4988566;28;20114;-87
2023/03/05 06:49:05;;;;;;;5.22;0.52;;;2.80;99.90;;;;;;4986072;28;20030;-87
2023/03/05 06:51:37;;;;;;;3.50;0.50;;;2.80;99.90;;;;;;4977075;28;20046;-86
2023/03/05 06:54:05;;;;;;;4.95;0.70;;;2.80;99.90;;;;;;4979397;28;20082;-86
2023/03/05 06:56:33;;;;;;;4.25;0.50;;;2.80;99.90;;;;;;4968950;28;20174;-86
2023/03/05 06:58:59;;;;;;;3.83;0.60;;;2.80;99.90;;;;;;4979816;28;20506;-86
2023/03/05 07:01:24;;;;;;;3.17;0.70;;;2.80;99.90;;;;;;4980784;28;20058;-86
2023/03/05 07:03:52;;;;;;;4.43;0.60;;;2.80;99.90;;;;;;4986751;28;20121;-86
2023/03/05 07:06:19;;;;;;;2.63;0.93;;;2.80;99.90;;;;;;4985478;28;20573;-87
2023/03/05 07:08:45;;;;;;;2.75;0.73;;;2.90;99.90;;;;;;4985888;28;20054;-86
2023/03/05 07:11:17;;;;;;;5.15;0.82;;;2.90;99.90;;;;;;4986198;28;20113;-86
2023/03/05 07:13:46;;;;;;;4.65;1.08;;;2.90;99.90;;;;;;4997302;28;20042;-86
2023/03/05 07:16:30;;;;;;;4.25;0.80;;;2.90;99.90;;;;;;4976686;28;20380;-87
2023/03/05 07:18:57;;;;;;;5.67;0.87;;;2.90;99.90;;;;;;4985091;28;20045;-86
2023/03/05 07:21:26;;;;;;;6.88;1.00;;;3.00;99.90;;;;;;4977284;28;20363;-87
2023/03/05 07:23:53;;;;;;;5.13;0.77;;;3.00;99.90;;;;;;4977627;28;20043;-87
2023/03/05 07:26:18;;;;;;;3.75;0.73;;;3.00;99.90;;;;;;4978083;28;20133;-86
2023/03/05 07:28:44;;;;;;;11.50;2.67;;;3.00;99.90;;;;;;4984537;28;20133;-86
2023/03/05 07:31:13;;;;;;;5.65;1.90;;;3.10;99.90;;;;;;4980522;28;20070;-87
2023/03/05 07:33:39;;;;;;;9.20;2.03;;;3.10;99.90;;;;;;4976550;28;20117;-86
2023/03/05 07:36:08;;;;;;;6.72;1.85;;;3.10;99.90;;;;;;4992699;28;20459;-88
2023/03/05 07:38:34;;;;;;;7.45;2.80;;;3.20;99.90;;;;;;4982780;28;20109;-90
2023/03/05 07:41:04;;;;;;;6.20;1.38;;;3.20;99.90;;;;;;4979859;28;20088;-90
2023/03/05 07:43:30;;;;;;;7.53;1.50;;;3.20;99.90;;;;;;4990038;28;20074;-90
2023/03/05 07:45:55;;;;;;;8.55;1.40;;;3.30;99.90;;;;;;4991571;28;20074;-90
2023/03/05 07:48:21;;;;;;;3.95;1.20;;;3.30;99.90;;;;;;4990945;28;20042;-88
2023/03/05 07:50:47;;;;;;;10.15;1.58;;;3.30;99.90;;;;;;4987969;28;20409;-89
2023/03/05 07:53:14;;;;;;;3.70;0.75;;;3.40;99.90;;;;;;4980095;28;20035;-90
2023/03/05 07:55:44;;;;;;;5.15;0.93;;;3.40;99.90;;;;;;4985089;28;20125;-90
2023/03/05 07:58:10;;;;;;;7.32;1.38;;;3.50;99.90;;;;;;4982808;28;20070;-91
2023/03/05 08:00:40;;;;;;;6.55;0.75;;;3.50;99.90;;;;;;4996636;28;20038;-89
2023/03/05 08:03:07;;;;;;;5.90;1.20;;;3.60;99.90;;;;;;4982544;28;20035;-90
2023/03/05 08:05:33;;;;;;;5.75;1.42;;;3.60;99.90;;;;;;4977531;28;20057;-90
2023/03/05 08:07:58;;;;;;;7.10;1.05;;;3.60;99.90;;;;;;4977509;28;20061;-88
2023/03/05 08:10:24;;;;;;;12.15;1.73;;;3.60;99.90;;;;;;4978079;28;20054;-89
2023/03/05 08:12:50;;;;;;;7.63;0.90;;;3.60;99.90;;;;;;4984167;28;20042;-89
2023/03/05 08:15:18;;;;;;;9.18;1.05;;;3.70;99.90;;;;;;4977704;28;20043;-86
2023/03/05 08:17:44;;;;;;;7.15;0.90;;;3.70;99.90;;;;;;4982815;28;20065;-86
2023/03/05 08:20:10;;;;;;;7.47;1.27;;;3.70;99.90;;;;;;4982099;28;20050;-87
2023/03/05 08:22:36;;;;;;;5.25;1.05;;;3.80;99.90;;;;;;4986059;28;20155;-84
2023/03/05 08:25:04;;;;;;;5.10;0.85;;;3.80;99.90;;;;;;4978183;28;20046;-84
2023/03/05 08:27:30;;;;;;;3.53;0.90;;;3.80;99.90;;;;;;4982642;28;20237;-84
2023/03/05 08:29:55;;;;;;;9.85;1.20;;;3.80;99.90;;;;;;5003979;28;20382;-84
2023/03/05 08:32:21;;;;;;;8.68;1.10;;;3.80;99.90;;;;;;4986226;28;20042;-85
2023/03/05 08:34:47;;;;;;;9.02;1.40;;;3.80;99.90;;;;;;4987331;28;20590;-85
2023/03/05 08:37:13;;;;;;;4.07;1.02;;;3.80;99.90;;;;;;4994800;28;20065;-85
2023/03/05 08:39:38;;;;;;;3.40;0.75;;;3.90;99.90;;;;;;4984737;28;20054;-85
2023/03/05 08:42:04;;;;;;;6.47;1.00;;;3.80;99.90;;;;;;4983011;28;20054;-85
2023/03/05 08:44:33;;;;;;;3.45;0.95;;;3.90;99.90;;;;;;4977076;28;20050;-85
2023/03/05 08:47:01;;;;;;;5.50;0.95;;;3.90;99.90;;;;;;4990429;28;20074;-85
2023/03/05 08:49:27;;;;;;;3.63;0.88;;;4.00;99.90;;;;;;4983799;28;20087;-85
2023/03/05 08:51:53;;;;;;;6.68;0.90;;;4.10;99.90;;;;;;4983564;28;20039;-85
2023/03/05 08:54:18;;;;;;;5.97;0.85;;;4.10;99.90;;;;;;4989501;28;20038;-85
2023/03/05 08:56:48;;;;;;;6.70;0.98;;;4.20;99.90;;;;;;4988961;28;20034;-86
2023/03/05 08:59:14;;;;;;;5.18;0.77;;;4.20;99.90;;;;;;4976666;28;20050;-86
2023/03/05 09:01:40;;;;;;;4.65;0.77;;;4.30;99.90;;;;;;4988774;28;20061;-85
2023/03/05 09:04:06;;;;;;;6.00;0.80;;;4.40;99.90;;;;;;4990295;28;20038;-85
2023/03/05 09:06:33;;;;;;;7.68;1.13;;;4.30;99.90;;;;;;4984745;28;20038;-85
2023/03/05 09:08:59;;;;;;;5.80;0.60;;;4.40;99.90;;;;;;4991031;28;20052;-85
2023/03/05 09:11:25;;;;;;;8.48;1.15;;;4.40;99.90;;;;;;4986269;28;20677;-85
2023/03/05 09:13:51;;;;;;;4.93;0.90;;;4.50;99.90;;;;;;4987357;28;20042;-85
2023/03/05 09:16:21;;;;;;;4.95;0.80;;;4.50;99.90;;;;;;4985038;28;20510;-86
2023/03/05 09:18:46;;;;;;;5.25;1.20;;;4.20;99.90;;;;;;4985972;28;20053;-86
2023/03/05 09:21:15;;;;;;;6.65;0.80;;;4.60;99.90;;;;;;4973181;28;20047;-86
2023/03/05 09:23:41;;;;;;;8.70;1.20;;;4.70;99.90;;;;;;4983178;28;20049;-85
2023/03/05 09:26:09;;;;;;;10.40;0.90;;;4.70;99.90;;;;;;4976438;28;20342;-86
2023/03/05 09:28:35;;;;;;;7.68;0.90;;;4.90;99.90;;;;;;4986664;28;20117;-88
2023/03/05 09:31:06;;;;;;;6.35;0.80;;;4.80;99.90;;;;;;4981284;28;20042;-89
2023/03/05 09:33:32;;;;;;;5.38;0.70;;;4.90;99.90;;;;;;4982758;28;20042;-91
2023/03/05 09:36:23;;;;;;;4.18;0.85;;;5.00;99.90;;;;;;4981581;28;20077;-90
2023/03/05 09:38:49;;;;;;;4.47;0.70;;;5.10;99.90;;;;;;4972514;28;20133;-91
2023/03/05 09:41:24;;;;;;;5.25;0.77;;;5.20;99.90;;;;;;4971504;28;20070;-91
2023/03/05 09:43:58;;;;;;;2.42;0.50;;;5.20;99.90;;;;;;4988265;28;20104;-90
2023/03/05 09:46:37;;;;;;;2.58;0.57;;;5.10;99.90;;;;;;4988571;28;20301;-90
2023/03/05 09:49:09;;;;;;;2.38;0.60;;;5.00;99.90;;;;;;4975428;28;20088;-91
2023/03/05 09:51:40;;;;;;;2.30;0.40;;;4.90;99.90;;;;;;5014812;23;20095;-96
2023/03/05 09:54:15;;;;;;;1.70;0.30;;;5.40;99.90;;;;;;5061168;28;20060;-94
2023/03/05 09:56:43;;;;;;;;;;;4.80;99.90;;;;;;5046658;28;20487;-89
2023/03/05 09:59:30;;;;;;;1.45;0.30;;;5.40;99.90;;;;;;5062124;28;19972;-88
2023/03/05 10:02:01;;;;;;;5.05;0.60;;;4.80;99.90;;;;;;5057444;28;20562;-88
2023/03/05 10:04:39;;;;;;;5.05;1.27;;;4.70;99.90;;;;;;5029952;28;20033;-89
2023/03/05 10:07:10;;;;;;;4.13;0.77;;;4.70;99.90;;;;;;5056944;28;20041;-91
2023/03/05 10:09:49;;;;;;;2.63;0.80;;;4.80;99.90;;;;;;5051084;28;20204;-88
2023/03/05 10:12:42;;;;;;;5.38;0.60;;;4.80;99.90;;;;;;5033559;28;20052;-89
2023/03/05 10:15:25;;;;;;;2.90;0.88;;;4.90;99.90;;;;;;5057353;28;20036;-89
2023/03/05 10:18:23;;;;;;;5.25;0.82;;;5.00;99.90;;;;;;5040092;28;20048;-89
2023/03/05 10:20:56;;;;;;;3.15;0.55;;;5.20;99.90;;;;;;5029727;28;20052;-90
2023/03/05 10:24:03;;;;;;;1.83;0.50;;;5.40;99.90;;;;;;5040884;28;20117;-88
2023/03/05 10:26:58;;;;;;;4.32;0.52;;;5.60;99.90;;;;;;4967714;28;20528;-91
2023/03/05 10:30:18;;;;;;;2.92;0.75;;;5.60;99.90;;;;;;4985536;28;20505;-91
2023/03/05 10:33:22;;;;;;;10.80;2.28;;;5.60;99.90;;;;;;4892643;29;20119;-88
2023/03/05 10:36:23;;;;;;;1.75;0.65;;;5.70;99.90;;;;;;4865638;29;20524;-94
2023/03/05 10:39:23;;;;;;;4.50;0.50;;;5.70;99.90;;;;;;4860316;29;20101;-93
2023/03/05 10:42:34;;;;;;;5.38;0.88;;;5.80;99.90;;;;;;4857522;29;20102;-93
2023/03/05 10:45:08;;;;;;;2.45;0.55;;;5.80;99.90;;;;;;4854245;29;20064;-93
2023/03/05 10:47:51;;;;;;;6.80;0.70;;;5.80;99.90;;;;;;4854944;29;20054;-96
2023/03/05 10:50:25;;;;;;;4.78;0.73;;;5.80;99.90;;;;;;4840948;29;20065;-92
2023/03/05 10:53:22;;;;;;;5.60;0.70;;;6.00;99.90;;;;;;4854331;29;20182;-93
2023/03/05 10:55:49;;;;;;;6.25;0.70;;;6.20;99.90;;;;;;4846518;29;20089;-92
2023/03/05 10:58:16;;;;;;;5.15;0.50;;;6.40;99.90;;;;;;4845877;29;20068;-95
2023/03/05 11:01:20;;;;;;;6.57;0.88;;;6.50;99.90;;;;;;4861673;29;20075;-93
2023/03/05 11:03:58;;;;;;;6.38;1.15;;;6.60;99.90;;;;;;4937880;28;20058;-90
2023/03/05 11:06:38;;;;;;;7.70;2.40;;;6.60;99.90;;;;;;4962977;28;20454;-89
2023/03/05 11:09:17;;;;;;;11.05;2.10;;;6.70;99.90;;;;;;4982377;28;20382;-93
2023/03/05 11:12:00;;;;;;;6.47;0.68;;;6.90;99.90;;;;;;4985223;28;20084;-91
2023/03/05 11:14:32;;;;;;;32.28;5.40;;;6.80;99.90;;;;;;5053301;28;20046;-91
2023/03/05 11:16:59;;;;;;;15.00;5.47;;;6.70;99.90;;;;;;5038068;28;20480;-91
2023/03/05 11:19:32;;;;;;;4.70;1.25;;;6.60;99.90;;;;;;5034845;28;20044;-91
2023/03/05 11:22:14;;;;;;;3.78;0.90;;;6.50;99.90;;;;;;5021638;28;20120;-91
2023/03/05 11:24:40;;;;;;;6.65;1.08;;;6.60;99.90;;;;;;5054272;28;20029;-91
2023/03/05 11:27:36;;;;;;;3.03;0.98;;;6.60;99.90;;;;;;5030313;28;20044;-91
2023/03/05 11:30:03;;;;;;;5.60;1.05;;;6.70;99.90;;;;;;5054979;28;20033;-91
2023/03/05 11:32:30;;;;;;;6.35;1.63;;;6.90;99.90;;;;;;5037288;28;20040;-90
2023/03/05 11:34:57;;;;;;;3.10;1.60;;;7.10;99.90;;;;;;5036129;28;20099;-91
2023/03/05 11:37:28;;;;;;;2.72;0.60;;;7.30;99.90;;;;;;5031863;28;20484;-91
2023/03/05 11:40:09;;;;;;;8.43;0.70;;;7.40;99.90;;;;;;5035228;28;20049;-96
2023/03/05 11:42:38;;;;;;;5.00;0.70;;;7.50;99.90;;;;;;5033629;28;20040;-96
2023/03/05 11:45:04;;;;;;;4.25;0.65;;;7.50;99.90;;;;;;5050016;28;20086;-94
2023/03/05 11:47:49;;;;;;;3.40;0.63;;;7.60;99.90;;;;;;5063855;28;20032;-96
2023/03/05 11:50:14;;;;;;;;;;;7.70;99.90;;;;;;5044623;28;20075;-93
2023/03/05 11:52:48;;;;;;;3.38;0.70;;;7.60;99.90;;;;;;5049709;28;20033;-92
2023/03/05 11:55:26;;;;;;;6.40;0.73;;;7.70;99.90;;;;;;5065889;28;20137;-96
2023/03/05 11:58:11;;;;;;;5.03;0.80;;;7.70;99.90;;;;;;5062049;28;20056;-88
2023/03/05 12:00:42;;;;;;;5.45;0.60;;;7.70;99.90;;;;;;5054281;28;20047;-88
2023/03/05 12:03:13;;;;;;;2.05;0.70;;;7.80;99.90;;;;;;5056176;28;20045;-88
2023/03/05 12:05:43;;;;;;;5.78;0.80;;;7.60;99.90;;;;;;5034203;28;20029;-86
2023/03/05 12:08:14;;;;;;;3.15;0.35;;;7.50;99.90;;;;;;5035769;28;20049;-87
2023/03/05 12:10:40;;;;;;;2.70;0.52;;;7.40;99.90;;;;;;5029410;28;20133;-87
2023/03/05 12:13:23;;;;;;;2.67;0.50;;;7.50;99.90;;;;;;5052540;28;20104;-87
2023/03/05 12:16:32;;;;;;;6.03;0.60;;;7.70;99.90;;;;;;5034178;28;20056;-86
2023/03/05 12:19:13;;;;;;;1.90;0.47;;;7.90;99.90;;;;;;4946548;28;20046;-88
2023/03/05 12:21:42;;;;;;;3.53;0.50;;;7.80;99.90;;;;;;4946206;28;20070;-88
2023/03/05 12:24:23;;;;;;;5.07;0.60;;;7.70;99.90;;;;;;4944589;28;20509;-88
2023/03/05 12:27:03;;;;;;;7.43;1.25;;;7.60;99.90;;;;;;4946806;28;20051;-88
2023/03/05 12:29:32;;;;;;;2.00;0.40;;;7.50;99.90;;;;;;4952409;28;20042;-87
2023/03/05 12:32:02;;;;;;;5.18;0.80;;;7.30;99.90;;;;;;4948114;28;20517;-87
2023/03/05 12:34:39;;;;;;;3.50;0.77;;;7.30;99.90;;;;;;4967129;28;20047;-86
2023/03/05 12:37:33;;;;;;;6.68;0.82;;;7.20;99.90;;;;;;4941735;28;20140;-86
2023/03/05 12:40:06;;;;;;;6.78;0.73;;;7.20;99.90;;;;;;4943529;28;20051;-86
2023/03/05 12:42:32;;;;;;;4.80;0.60;;;7.20;99.90;;;;;;4951487;28;20050;-86
2023/03/05 12:45:15;;;;;;;3.88;0.63;;;7.20;99.90;;;;;;4953080;28;20047;-86
2023/03/05 12:48:10;;;;;;;2.75;0.40;;;7.20;99.90;;;;;;4965315;28;20438;-85
2023/03/05 12:50:36;;;;;;;3.60;0.55;;;7.30;99.90;;;;;;4923112;28;20047;-86
2023/03/05 12:53:17;;;;;;;3.15;1.30;;;7.40;99.90;;;;;;5001965;28;20044;-86
2023/03/05 12:56:20;;;;;;;4.78;0.52;;;7.50;99.90;;;;;;5062053;28;20045;-86
2023/03/05 12:58:50;;;;;;;6.05;0.73;;;7.60;99.90;;;;;;5020845;28;20088;-86
2023/03/05 13:01:49;;;;;;;4.18;0.75;;;7.60;99.90;;;;;;5030868;28;20055;-86
2023/03/05 13:04:20;;;;;;;3.95;0.70;;;7.60;99.90;;;;;;5044355;28;20608;-86
2023/03/05 13:06:56;;;;;;;4.50;0.70;;;7.60;99.90;;;;;;5042451;28;20513;-86
2023/03/05 13:09:24;;;;;;;4.13;0.65;;;7.90;99.90;;;;;;5021896;28;20064;-86
2023/03/05 13:11:52;;;;;;;5.32;0.90;;;7.50;99.90;;;;;;5035619;28;20033;-84